sensor_id;sensor_type;location;lat;lon;timestamp;P1;durP1;ratioP1;P2;durP2;ratioP2
7440;SDS011;29616;51.950;8.572;2023-12-20T00:00:15;504.02;;;222.45;;
7440;SDS011;29616;51.950;8.572;2023-12-20T00:02:46;442.17;;;193.65;;
7440;SDS011;29616;51.950;8.572;2023-12-20T00:05:16;453.38;;;199.93;;
7440;SDS011;29616;51.950;8.572;2023-12-20T00:07:47;505.20;;;225.38;;
7440;SDS011;29616;51.950;8.572;2023-12-20T00:10:16;496.70;;;223.25;;
7440;SDS011;29616;51.950;8.572;2023-12-20T00:12:49;484.52;;;214.60;;
7440;SDS011;29616;51.950;8.572;2023-12-20T00:15:17;474.13;;;212.23;;
7440;SDS011;29616;51.950;8.572;2023-12-20T00:17:48;470.98;;;208.68;;
7440;SDS011;29616;51.950;8.572;2023-12-20T00:20:16;456.65;;;203.55;;
7440;SDS011;29616;51.950;8.572;2023-12-20T00:22:45;464.33;;;206.18;;
7440;SDS011;29616;51.950;8.572;2023-12-20T00:25:15;481.77;;;214.90;;
7440;SDS011;29616;51.950;8.572;2023-12-20T00:27:45;479.92;;;211.55;;
7440;SDS011;29616;51.950;8.572;2023-12-20T00:30:15;472.92;;;206.73;;
7440;SDS011;29616;51.950;8.572;2023-12-20T00:35:14;480.27;;;215.80;;
7440;SDS011;29616;51.950;8.572;2023-12-20T00:37:43;458.48;;;203.45;;
7440;SDS011;29616;51.950;8.572;2023-12-20T00:40:16;461.70;;;206.10;;
7440;SDS011;29616;51.950;8.572;2023-12-20T00:42:45;466.27;;;206.02;;
7440;SDS011;29616;51.950;8.572;2023-12-20T00:45:14;475.42;;;210.27;;
7440;SDS011;29616;51.950;8.572;2023-12-20T00:47:43;491.48;;;217.95;;
7440;SDS011;29616;51.950;8.572;2023-12-20T00:50:12;465.42;;;207.93;;
7440;SDS011;29616;51.950;8.572;2023-12-20T00:52:42;465.67;;;207.15;;
7440;SDS011;29616;51.950;8.572;2023-12-20T00:55:11;513.63;;;230.07;;
7440;SDS011;29616;51.950;8.572;2023-12-20T00:57:42;492.95;;;220.07;;
7440;SDS011;29616;51.950;8.572;2023-12-20T01:00:11;454.23;;;200.30;;
7440;SDS011;29616;51.950;8.572;2023-12-20T01:02:42;458.73;;;204.32;;
7440;SDS011;29616;51.950;8.572;2023-12-20T01:05:12;454.48;;;201.55;;
7440;SDS011;29616;51.950;8.572;2023-12-20T01:07:43;471.17;;;210.55;;
7440;SDS011;29616;51.950;8.572;2023-12-20T01:10:12;481.95;;;216.98;;
7440;SDS011;29616;51.950;8.572;2023-12-20T01:12:43;499.23;;;225.40;;
7440;SDS011;29616;51.950;8.572;2023-12-20T01:15:12;531.35;;;238.77;;
7440;SDS011;29616;51.950;8.572;2023-12-20T01:17:42;512.60;;;228.60;;
7440;SDS011;29616;51.950;8.572;2023-12-20T01:20:12;538.45;;;241.57;;
7440;SDS011;29616;51.950;8.572;2023-12-20T01:22:42;593.65;;;266.33;;
7440;SDS011;29616;51.950;8.572;2023-12-20T01:25:12;590.13;;;266.20;;
7440;SDS011;29616;51.950;8.572;2023-12-20T01:27:45;594.97;;;270.45;;
7440;SDS011;29616;51.950;8.572;2023-12-20T01:30:15;643.10;;;290.77;;
7440;SDS011;29616;51.950;8.572;2023-12-20T01:32:46;674.05;;;299.40;;
7440;SDS011;29616;51.950;8.572;2023-12-20T01:35:14;645.47;;;293.15;;
7440;SDS011;29616;51.950;8.572;2023-12-20T01:37:43;694.30;;;316.92;;
7440;SDS011;29616;51.950;8.572;2023-12-20T01:40:14;682.63;;;312.00;;
7440;SDS011;29616;51.950;8.572;2023-12-20T01:42:46;713.45;;;325.38;;
7440;SDS011;29616;51.950;8.572;2023-12-20T01:45:16;769.20;;;350.15;;
7440;SDS011;29616;51.950;8.572;2023-12-20T01:47:46;755.17;;;346.80;;
7440;SDS011;29616;51.950;8.572;2023-12-20T01:50:15;792.38;;;356.75;;
7440;SDS011;29616;51.950;8.572;2023-12-20T01:52:44;865.40;;;393.08;;
7440;SDS011;29616;51.950;8.572;2023-12-20T01:55:15;857.60;;;386.20;;
7440;SDS011;29616;51.950;8.572;2023-12-20T01:57:47;877.90;;;399.40;;
7440;SDS011;29616;51.950;8.572;2023-12-20T02:00:17;857.25;;;395.48;;
7440;SDS011;29616;51.950;8.572;2023-12-20T02:02:50;888.30;;;412.67;;
7440;SDS011;29616;51.950;8.572;2023-12-20T02:05:22;873.15;;;400.80;;
7440;SDS011;29616;51.950;8.572;2023-12-20T02:07:55;872.42;;;405.77;;
7440;SDS011;29616;51.950;8.572;2023-12-20T02:10:26;902.03;;;420.95;;
7440;SDS011;29616;51.950;8.572;2023-12-20T02:12:59;864.33;;;393.15;;
7440;SDS011;29616;51.950;8.572;2023-12-20T02:15:29;844.17;;;393.80;;
7440;SDS011;29616;51.950;8.572;2023-12-20T02:18:00;859.38;;;399.83;;
7440;SDS011;29616;51.950;8.572;2023-12-20T02:20:29;812.47;;;378.27;;
7440;SDS011;29616;51.950;8.572;2023-12-20T02:23:01;849.72;;;396.08;;
7440;SDS011;29616;51.950;8.572;2023-12-20T02:25:29;833.83;;;394.70;;
7440;SDS011;29616;51.950;8.572;2023-12-20T02:27:59;832.97;;;388.40;;
7440;SDS011;29616;51.950;8.572;2023-12-20T02:30:29;847.40;;;398.48;;
7440;SDS011;29616;51.950;8.572;2023-12-20T02:32:57;836.83;;;392.83;;
7440;SDS011;29616;51.950;8.572;2023-12-20T02:35:29;763.67;;;358.63;;
7440;SDS011;29616;51.950;8.572;2023-12-20T02:38:00;812.50;;;381.27;;
7440;SDS011;29616;51.950;8.572;2023-12-20T02:40:29;803.75;;;380.70;;
7440;SDS011;29616;51.950;8.572;2023-12-20T02:42:59;792.67;;;368.08;;
7440;SDS011;29616;51.950;8.572;2023-12-20T02:45:28;755.58;;;351.77;;
7440;SDS011;29616;51.950;8.572;2023-12-20T02:47:57;800.55;;;370.70;;
7440;SDS011;29616;51.950;8.572;2023-12-20T02:50:25;786.97;;;368.55;;
7440;SDS011;29616;51.950;8.572;2023-12-20T02:52:55;811.90;;;388.70;;
7440;SDS011;29616;51.950;8.572;2023-12-20T02:55:27;837.13;;;402.60;;
7440;SDS011;29616;51.950;8.572;2023-12-20T02:57:56;789.45;;;386.08;;
7440;SDS011;29616;51.950;8.572;2023-12-20T03:00:25;800.50;;;383.33;;
7440;SDS011;29616;51.950;8.572;2023-12-20T03:02:55;821.30;;;400.88;;
7440;SDS011;29616;51.950;8.572;2023-12-20T03:05:23;754.20;;;363.92;;
7440;SDS011;29616;51.950;8.572;2023-12-20T03:07:52;779.25;;;374.45;;
7440;SDS011;29616;51.950;8.572;2023-12-20T03:10:22;764.65;;;369.48;;
7440;SDS011;29616;51.950;8.572;2023-12-20T03:12:55;846.00;;;410.15;;
7440;SDS011;29616;51.950;8.572;2023-12-20T03:15:26;815.47;;;406.35;;
7440;SDS011;29616;51.950;8.572;2023-12-20T03:17:56;794.45;;;394.20;;
7440;SDS011;29616;51.950;8.572;2023-12-20T03:20:26;789.25;;;384.27;;
7440;SDS011;29616;51.950;8.572;2023-12-20T03:22:56;793.92;;;391.90;;
7440;SDS011;29616;51.950;8.572;2023-12-20T03:25:25;847.70;;;420.20;;
7440;SDS011;29616;51.950;8.572;2023-12-20T03:27:57;858.38;;;424.33;;
7440;SDS011;29616;51.950;8.572;2023-12-20T03:30:25;866.28;;;433.50;;
7440;SDS011;29616;51.950;8.572;2023-12-20T03:32:56;831.28;;;416.55;;
7440;SDS011;29616;51.950;8.572;2023-12-20T03:35:24;839.10;;;412.80;;
7440;SDS011;29616;51.950;8.572;2023-12-20T03:37:56;900.47;;;447.23;;
7440;SDS011;29616;51.950;8.572;2023-12-20T03:40:27;894.70;;;452.38;;
7440;SDS011;29616;51.950;8.572;2023-12-20T03:43:00;869.58;;;452.00;;
7440;SDS011;29616;51.950;8.572;2023-12-20T03:45:28;858.03;;;438.70;;
7440;SDS011;29616;51.950;8.572;2023-12-20T03:47:59;861.72;;;451.00;;
7440;SDS011;29616;51.950;8.572;2023-12-20T03:50:29;852.25;;;448.38;;
7440;SDS011;29616;51.950;8.572;2023-12-20T03:53:00;813.63;;;416.77;;
7440;SDS011;29616;51.950;8.572;2023-12-20T03:55:28;783.38;;;396.33;;
7440;SDS011;29616;51.950;8.572;2023-12-20T03:57:56;778.53;;;394.38;;
7440;SDS011;29616;51.950;8.572;2023-12-20T04:00:27;797.45;;;409.10;;
7440;SDS011;29616;51.950;8.572;2023-12-20T04:02:57;830.88;;;442.75;;
7440;SDS011;29616;51.950;8.572;2023-12-20T04:05:28;797.90;;;404.48;;
7440;SDS011;29616;51.950;8.572;2023-12-20T04:07:57;826.67;;;427.80;;
7440;SDS011;29616;51.950;8.572;2023-12-20T04:10:30;837.40;;;439.55;;
7440;SDS011;29616;51.950;8.572;2023-12-20T04:12:59;831.65;;;448.25;;
7440;SDS011;29616;51.950;8.572;2023-12-20T04:15:32;830.35;;;449.55;;
7440;SDS011;29616;51.950;8.572;2023-12-20T04:18:02;859.42;;;476.35;;
7440;SDS011;29616;51.950;8.572;2023-12-20T04:20:33;873.78;;;482.55;;
7440;SDS011;29616;51.950;8.572;2023-12-20T04:23:03;857.38;;;456.67;;
7440;SDS011;29616;51.950;8.572;2023-12-20T04:25:34;814.35;;;427.63;;
7440;SDS011;29616;51.950;8.572;2023-12-20T04:28:04;828.60;;;443.60;;
7440;SDS011;29616;51.950;8.572;2023-12-20T04:30:36;818.78;;;435.67;;
7440;SDS011;29616;51.950;8.572;2023-12-20T04:33:06;829.92;;;437.35;;
7440;SDS011;29616;51.950;8.572;2023-12-20T04:35:34;816.08;;;430.15;;
7440;SDS011;29616;51.950;8.572;2023-12-20T04:38:04;860.50;;;476.05;;
7440;SDS011;29616;51.950;8.572;2023-12-20T04:40:33;885.20;;;490.08;;
7440;SDS011;29616;51.950;8.572;2023-12-20T04:43:01;877.13;;;482.50;;
7440;SDS011;29616;51.950;8.572;2023-12-20T04:45:31;840.35;;;449.75;;
7440;SDS011;29616;51.950;8.572;2023-12-20T04:48:03;862.05;;;462.83;;
7440;SDS011;29616;51.950;8.572;2023-12-20T04:50:33;852.83;;;461.85;;
7440;SDS011;29616;51.950;8.572;2023-12-20T04:53:02;857.88;;;476.73;;
7440;SDS011;29616;51.950;8.572;2023-12-20T04:55:31;849.00;;;475.05;;
7440;SDS011;29616;51.950;8.572;2023-12-20T04:58:00;815.38;;;443.33;;
7440;SDS011;29616;51.950;8.572;2023-12-20T05:00:29;844.53;;;467.08;;
7440;SDS011;29616;51.950;8.572;2023-12-20T05:03:00;851.75;;;475.95;;
7440;SDS011;29616;51.950;8.572;2023-12-20T05:05:31;865.72;;;497.15;;
7440;SDS011;29616;51.950;8.572;2023-12-20T05:08:00;882.83;;;496.17;;
7440;SDS011;29616;51.950;8.572;2023-12-20T05:10:32;877.72;;;487.08;;
7440;SDS011;29616;51.950;8.572;2023-12-20T05:13:00;852.60;;;469.40;;
7440;SDS011;29616;51.950;8.572;2023-12-20T05:15:30;847.33;;;459.70;;
7440;SDS011;29616;51.950;8.572;2023-12-20T05:18:00;857.50;;;476.90;;
7440;SDS011;29616;51.950;8.572;2023-12-20T05:20:29;889.67;;;505.35;;
7440;SDS011;29616;51.950;8.572;2023-12-20T05:23:02;883.22;;;493.80;;
7440;SDS011;29616;51.950;8.572;2023-12-20T05:25:31;824.17;;;440.75;;
7440;SDS011;29616;51.950;8.572;2023-12-20T05:28:01;817.83;;;445.77;;
7440;SDS011;29616;51.950;8.572;2023-12-20T05:30:31;818.47;;;440.98;;
7440;SDS011;29616;51.950;8.572;2023-12-20T05:32:59;824.35;;;453.38;;
7440;SDS011;29616;51.950;8.572;2023-12-20T05:35:28;733.13;;;369.77;;
7440;SDS011;29616;51.950;8.572;2023-12-20T05:37:58;729.90;;;364.50;;
7440;SDS011;29616;51.950;8.572;2023-12-20T05:40:26;720.70;;;357.27;;
7440;SDS011;29616;51.950;8.572;2023-12-20T05:42:56;709.95;;;353.02;;
7440;SDS011;29616;51.950;8.572;2023-12-20T05:45:25;733.75;;;363.83;;
7440;SDS011;29616;51.950;8.572;2023-12-20T05:47:57;734.95;;;363.48;;
7440;SDS011;29616;51.950;8.572;2023-12-20T05:52:56;668.00;;;332.02;;
7440;SDS011;29616;51.950;8.572;2023-12-20T05:55:25;707.08;;;351.42;;
7440;SDS011;29616;51.950;8.572;2023-12-20T05:57:55;707.85;;;346.25;;
7440;SDS011;29616;51.950;8.572;2023-12-20T06:00:25;689.75;;;337.38;;
7440;SDS011;29616;51.950;8.572;2023-12-20T06:02:55;735.67;;;359.08;;
7440;SDS011;29616;51.950;8.572;2023-12-20T06:05:23;770.58;;;377.15;;
7440;SDS011;29616;51.950;8.572;2023-12-20T06:07:51;804.47;;;393.67;;
7440;SDS011;29616;51.950;8.572;2023-12-20T06:10:23;762.00;;;375.27;;
7440;SDS011;29616;51.950;8.572;2023-12-20T06:12:54;762.92;;;370.65;;
7440;SDS011;29616;51.950;8.572;2023-12-20T06:15:26;771.60;;;382.88;;
7440;SDS011;29616;51.950;8.572;2023-12-20T06:17:55;860.65;;;424.50;;
7440;SDS011;29616;51.950;8.572;2023-12-20T06:20:26;845.67;;;415.15;;
7440;SDS011;29616;51.950;8.572;2023-12-20T06:22:56;867.53;;;420.55;;
7440;SDS011;29616;51.950;8.572;2023-12-20T06:25:28;860.13;;;420.02;;
7440;SDS011;29616;51.950;8.572;2023-12-20T06:27:57;892.58;;;434.83;;
7440;SDS011;29616;51.950;8.572;2023-12-20T06:30:26;802.80;;;392.92;;
7440;SDS011;29616;51.950;8.572;2023-12-20T06:32:54;755.85;;;370.55;;
7440;SDS011;29616;51.950;8.572;2023-12-20T06:35:25;813.40;;;413.35;;
7440;SDS011;29616;51.950;8.572;2023-12-20T06:37:53;797.85;;;393.52;;
7440;SDS011;29616;51.950;8.572;2023-12-20T06:40:22;804.70;;;404.60;;
7440;SDS011;29616;51.950;8.572;2023-12-20T06:42:52;807.50;;;406.73;;
7440;SDS011;29616;51.950;8.572;2023-12-20T06:45:35;781.60;;;384.75;;
7440;SDS011;29616;51.950;8.572;2023-12-20T06:48:04;804.55;;;400.35;;
7440;SDS011;29616;51.950;8.572;2023-12-20T06:50:33;797.03;;;393.60;;
7440;SDS011;29616;51.950;8.572;2023-12-20T06:55:38;744.10;;;365.52;;
7440;SDS011;29616;51.950;8.572;2023-12-20T06:58:08;762.85;;;369.52;;
7440;SDS011;29616;51.950;8.572;2023-12-20T07:00:37;739.30;;;362.42;;
7440;SDS011;29616;51.950;8.572;2023-12-20T07:03:07;792.25;;;380.88;;
7440;SDS011;29616;51.950;8.572;2023-12-20T07:05:36;775.55;;;379.48;;
7440;SDS011;29616;51.950;8.572;2023-12-20T07:08:06;724.45;;;349.38;;
7440;SDS011;29616;51.950;8.572;2023-12-20T07:10:34;691.53;;;337.45;;
7440;SDS011;29616;51.950;8.572;2023-12-20T07:13:05;684.95;;;337.13;;
7440;SDS011;29616;51.950;8.572;2023-12-20T07:15:38;704.28;;;343.65;;
7440;SDS011;29616;51.950;8.572;2023-12-20T07:18:07;729.20;;;354.35;;
7440;SDS011;29616;51.950;8.572;2023-12-20T07:20:36;760.72;;;367.10;;
7440;SDS011;29616;51.950;8.572;2023-12-20T07:23:06;706.13;;;337.13;;
7440;SDS011;29616;51.950;8.572;2023-12-20T07:25:37;736.33;;;355.77;;
7440;SDS011;29616;51.950;8.572;2023-12-20T07:28:05;744.92;;;358.55;;
7440;SDS011;29616;51.950;8.572;2023-12-20T07:30:35;666.17;;;317.58;;
7440;SDS011;29616;51.950;8.572;2023-12-20T07:33:05;650.10;;;310.27;;
7440;SDS011;29616;51.950;8.572;2023-12-20T07:35:36;635.30;;;305.52;;
7440;SDS011;29616;51.950;8.572;2023-12-20T07:38:05;679.42;;;324.55;;
7440;SDS011;29616;51.950;8.572;2023-12-20T07:40:33;669.00;;;322.50;;
7440;SDS011;29616;51.950;8.572;2023-12-20T07:43:02;685.20;;;328.52;;
7440;SDS011;29616;51.950;8.572;2023-12-20T07:45:32;661.03;;;315.23;;
7440;SDS011;29616;51.950;8.572;2023-12-20T07:48:04;704.10;;;328.73;;
7440;SDS011;29616;51.950;8.572;2023-12-20T07:50:35;714.83;;;334.63;;
7440;SDS011;29616;51.950;8.572;2023-12-20T07:53:05;680.20;;;316.02;;
7440;SDS011;29616;51.950;8.572;2023-12-20T07:55:35;686.40;;;314.85;;
7440;SDS011;29616;51.950;8.572;2023-12-20T07:58:06;656.78;;;306.38;;
7440;SDS011;29616;51.950;8.572;2023-12-20T08:00:35;628.63;;;295.85;;
7440;SDS011;29616;51.950;8.572;2023-12-20T08:03:06;643.60;;;303.08;;
7440;SDS011;29616;51.950;8.572;2023-12-20T08:05:35;652.97;;;306.02;;
7440;SDS011;29616;51.950;8.572;2023-12-20T08:08:07;657.17;;;309.75;;
7440;SDS011;29616;51.950;8.572;2023-12-20T08:10:36;658.70;;;304.83;;
7440;SDS011;29616;51.950;8.572;2023-12-20T08:13:06;649.13;;;305.60;;
7440;SDS011;29616;51.950;8.572;2023-12-20T08:15:38;639.28;;;299.17;;
7440;SDS011;29616;51.950;8.572;2023-12-20T08:18:09;634.22;;;299.48;;
7440;SDS011;29616;51.950;8.572;2023-12-20T08:20:39;636.92;;;299.42;;
7440;SDS011;29616;51.950;8.572;2023-12-20T08:23:08;650.33;;;304.50;;
7440;SDS011;29616;51.950;8.572;2023-12-20T08:25:38;649.65;;;302.02;;
7440;SDS011;29616;51.950;8.572;2023-12-20T08:28:08;654.67;;;306.02;;
7440;SDS011;29616;51.950;8.572;2023-12-20T08:30:38;630.45;;;294.45;;
7440;SDS011;29616;51.950;8.572;2023-12-20T08:33:09;629.55;;;295.58;;
7440;SDS011;29616;51.950;8.572;2023-12-20T08:35:44;632.40;;;298.02;;
7440;SDS011;29616;51.950;8.572;2023-12-20T08:38:19;631.28;;;295.75;;
7440;SDS011;29616;51.950;8.572;2023-12-20T08:50:18;649.58;;;305.45;;
7440;SDS011;29616;51.950;8.572;2023-12-20T08:52:51;639.45;;;301.10;;
7440;SDS011;29616;51.950;8.572;2023-12-20T08:55:25;656.00;;;305.83;;
7440;SDS011;29616;51.950;8.572;2023-12-20T08:57:59;648.97;;;305.02;;
7440;SDS011;29616;51.950;8.572;2023-12-20T09:00:30;650.80;;;304.27;;
7440;SDS011;29616;51.950;8.572;2023-12-20T09:03:01;665.75;;;307.88;;
7440;SDS011;29616;51.950;8.572;2023-12-20T09:05:32;648.55;;;302.63;;
7440;SDS011;29616;51.950;8.572;2023-12-20T09:08:05;660.95;;;304.10;;
7440;SDS011;29616;51.950;8.572;2023-12-20T09:10:38;671.65;;;313.75;;
7440;SDS011;29616;51.950;8.572;2023-12-20T09:13:14;638.03;;;300.48;;
7440;SDS011;29616;51.950;8.572;2023-12-20T09:15:50;674.63;;;314.95;;
7440;SDS011;29616;51.950;8.572;2023-12-20T09:18:19;666.67;;;310.90;;
7440;SDS011;29616;51.950;8.572;2023-12-20T09:20:49;676.55;;;316.75;;
7440;SDS011;29616;51.950;8.572;2023-12-20T09:23:19;669.67;;;310.02;;
7440;SDS011;29616;51.950;8.572;2023-12-20T09:25:48;669.33;;;308.73;;
7440;SDS011;29616;51.950;8.572;2023-12-20T09:28:19;662.15;;;308.05;;
7440;SDS011;29616;51.950;8.572;2023-12-20T09:30:48;678.15;;;314.48;;
7440;SDS011;29616;51.950;8.572;2023-12-20T09:33:19;663.90;;;310.55;;
7440;SDS011;29616;51.950;8.572;2023-12-20T09:35:50;679.50;;;313.40;;
7440;SDS011;29616;51.950;8.572;2023-12-20T09:38:20;674.30;;;312.73;;
7440;SDS011;29616;51.950;8.572;2023-12-20T09:40:51;668.10;;;307.40;;
7440;SDS011;29616;51.950;8.572;2023-12-20T09:43:23;663.90;;;306.90;;
7440;SDS011;29616;51.950;8.572;2023-12-20T09:45:58;637.78;;;297.05;;
7440;SDS011;29616;51.950;8.572;2023-12-20T09:48:38;636.88;;;296.98;;
7440;SDS011;29616;51.950;8.572;2023-12-20T09:51:12;668.85;;;310.45;;
7440;SDS011;29616;51.950;8.572;2023-12-20T09:53:49;671.10;;;305.98;;
7440;SDS011;29616;51.950;8.572;2023-12-20T09:56:25;668.58;;;306.60;;
7440;SDS011;29616;51.950;8.572;2023-12-20T09:58:59;672.10;;;310.05;;
7440;SDS011;29616;51.950;8.572;2023-12-20T10:01:29;680.20;;;314.98;;
7440;SDS011;29616;51.950;8.572;2023-12-20T10:04:02;691.72;;;320.35;;
7440;SDS011;29616;51.950;8.572;2023-12-20T10:07:01;706.20;;;327.35;;
7440;SDS011;29616;51.950;8.572;2023-12-20T10:09:33;725.42;;;331.35;;
7440;SDS011;29616;51.950;8.572;2023-12-20T10:12:05;737.75;;;339.88;;
7440;SDS011;29616;51.950;8.572;2023-12-20T10:14:38;714.50;;;328.90;;
7440;SDS011;29616;51.950;8.572;2023-12-20T10:17:11;733.83;;;341.38;;
7440;SDS011;29616;51.950;8.572;2023-12-20T10:19:42;776.25;;;360.67;;
7440;SDS011;29616;51.950;8.572;2023-12-20T10:22:13;727.95;;;340.70;;
7440;SDS011;29616;51.950;8.572;2023-12-20T10:24:43;721.03;;;336.70;;
7440;SDS011;29616;51.950;8.572;2023-12-20T10:27:23;731.42;;;342.17;;
7440;SDS011;29616;51.950;8.572;2023-12-20T10:29:56;675.50;;;318.40;;
7440;SDS011;29616;51.950;8.572;2023-12-20T10:32:29;690.53;;;322.75;;
7440;SDS011;29616;51.950;8.572;2023-12-20T10:35:00;697.72;;;325.30;;
7440;SDS011;29616;51.950;8.572;2023-12-20T10:37:31;696.45;;;322.88;;
7440;SDS011;29616;51.950;8.572;2023-12-20T10:40:07;727.00;;;339.83;;
7440;SDS011;29616;51.950;8.572;2023-12-20T10:42:38;739.70;;;345.08;;
7440;SDS011;29616;51.950;8.572;2023-12-20T10:45:11;693.80;;;324.00;;
7440;SDS011;29616;51.950;8.572;2023-12-20T10:47:41;712.95;;;331.42;;
7440;SDS011;29616;51.950;8.572;2023-12-20T10:50:16;711.00;;;329.27;;
7440;SDS011;29616;51.950;8.572;2023-12-20T10:52:48;642.42;;;300.92;;
7440;SDS011;29616;51.950;8.572;2023-12-20T10:55:23;615.33;;;286.48;;
7440;SDS011;29616;51.950;8.572;2023-12-20T10:57:54;616.45;;;286.58;;
7440;SDS011;29616;51.950;8.572;2023-12-20T11:00:30;658.33;;;304.27;;
7440;SDS011;29616;51.950;8.572;2023-12-20T11:03:01;662.30;;;303.58;;
7440;SDS011;29616;51.950;8.572;2023-12-20T11:05:33;703.10;;;320.40;;
7440;SDS011;29616;51.950;8.572;2023-12-20T11:08:19;686.38;;;316.20;;
7440;SDS011;29616;51.950;8.572;2023-12-20T11:10:55;690.35;;;316.30;;
7440;SDS011;29616;51.950;8.572;2023-12-20T11:13:31;666.45;;;306.00;;
7440;SDS011;29616;51.950;8.572;2023-12-20T11:16:04;695.55;;;315.92;;
7440;SDS011;29616;51.950;8.572;2023-12-20T11:18:37;685.13;;;313.48;;
7440;SDS011;29616;51.950;8.572;2023-12-20T11:21:09;690.75;;;320.02;;
7440;SDS011;29616;51.950;8.572;2023-12-20T11:29:56;699.35;;;323.40;;
7440;SDS011;29616;51.950;8.572;2023-12-20T11:32:30;672.55;;;310.40;;
7440;SDS011;29616;51.950;8.572;2023-12-20T11:35:00;685.22;;;312.77;;
7440;SDS011;29616;51.950;8.572;2023-12-20T11:37:46;693.33;;;318.63;;
7440;SDS011;29616;51.950;8.572;2023-12-20T11:40:17;707.25;;;325.52;;
7440;SDS011;29616;51.950;8.572;2023-12-20T11:42:50;689.80;;;314.25;;
7440;SDS011;29616;51.950;8.572;2023-12-20T11:45:23;699.97;;;318.50;;
7440;SDS011;29616;51.950;8.572;2023-12-20T11:47:58;705.72;;;320.25;;
7440;SDS011;29616;51.950;8.572;2023-12-20T11:52:59;679.25;;;314.95;;
7440;SDS011;29616;51.950;8.572;2023-12-20T11:55:29;650.03;;;298.13;;
7440;SDS011;29616;51.950;8.572;2023-12-20T11:57:58;657.45;;;298.65;;
7440;SDS011;29616;51.950;8.572;2023-12-20T12:00:36;687.75;;;310.83;;
7440;SDS011;29616;51.950;8.572;2023-12-20T12:03:06;678.60;;;305.95;;
7440;SDS011;29616;51.950;8.572;2023-12-20T12:05:36;671.75;;;302.38;;
7440;SDS011;29616;51.950;8.572;2023-12-20T12:08:08;678.03;;;303.35;;
7440;SDS011;29616;51.950;8.572;2023-12-20T12:10:38;670.30;;;296.83;;
7440;SDS011;29616;51.950;8.572;2023-12-20T12:13:08;655.58;;;292.75;;
7440;SDS011;29616;51.950;8.572;2023-12-20T12:15:43;652.55;;;289.88;;
7440;SDS011;29616;51.950;8.572;2023-12-20T12:18:15;649.28;;;288.70;;
7440;SDS011;29616;51.950;8.572;2023-12-20T12:20:46;639.80;;;287.17;;
7440;SDS011;29616;51.950;8.572;2023-12-20T12:23:22;648.55;;;291.00;;
7440;SDS011;29616;51.950;8.572;2023-12-20T12:25:56;687.55;;;305.60;;
7440;SDS011;29616;51.950;8.572;2023-12-20T12:28:26;805.13;;;336.15;;
7440;SDS011;29616;51.950;8.572;2023-12-20T12:30:58;726.30;;;324.88;;
7440;SDS011;29616;51.950;8.572;2023-12-20T12:33:29;676.13;;;304.15;;
7440;SDS011;29616;51.950;8.572;2023-12-20T12:35:58;667.63;;;302.00;;
7440;SDS011;29616;51.950;8.572;2023-12-20T12:38:30;690.22;;;312.48;;
7440;SDS011;29616;51.950;8.572;2023-12-20T12:40:58;689.58;;;311.52;;
7440;SDS011;29616;51.950;8.572;2023-12-20T12:43:29;668.10;;;304.83;;
7440;SDS011;29616;51.950;8.572;2023-12-20T12:46:02;651.08;;;296.98;;
7440;SDS011;29616;51.950;8.572;2023-12-20T12:48:36;674.47;;;307.38;;
7440;SDS011;29616;51.950;8.572;2023-12-20T12:51:10;644.50;;;294.15;;
7440;SDS011;29616;51.950;8.572;2023-12-20T12:53:41;652.38;;;296.40;;
7440;SDS011;29616;51.950;8.572;2023-12-20T12:56:10;651.80;;;295.17;;
7440;SDS011;29616;51.950;8.572;2023-12-20T12:58:42;651.20;;;298.30;;
7440;SDS011;29616;51.950;8.572;2023-12-20T13:01:13;667.58;;;305.17;;
7440;SDS011;29616;51.950;8.572;2023-12-20T13:03:44;667.78;;;307.58;;
7440;SDS011;29616;51.950;8.572;2023-12-20T13:06:14;672.88;;;305.85;;
7440;SDS011;29616;51.950;8.572;2023-12-20T13:08:46;692.83;;;318.02;;
7440;SDS011;29616;51.950;8.572;2023-12-20T13:11:17;681.22;;;309.92;;
7440;SDS011;29616;51.950;8.572;2023-12-20T13:16:17;650.38;;;300.95;;
7440;SDS011;29616;51.950;8.572;2023-12-20T13:18:46;670.60;;;308.23;;
7440;SDS011;29616;51.950;8.572;2023-12-20T13:21:17;673.33;;;310.42;;
7440;SDS011;29616;51.950;8.572;2023-12-20T13:23:47;672.28;;;307.60;;
7440;SDS011;29616;51.950;8.572;2023-12-20T13:26:16;710.33;;;321.63;;
7440;SDS011;29616;51.950;8.572;2023-12-20T13:28:47;702.83;;;324.67;;
7440;SDS011;29616;51.950;8.572;2023-12-20T13:31:17;704.47;;;320.27;;
7440;SDS011;29616;51.950;8.572;2023-12-20T13:33:47;707.92;;;328.05;;
7440;SDS011;29616;51.950;8.572;2023-12-20T13:36:17;698.35;;;321.05;;
7440;SDS011;29616;51.950;8.572;2023-12-20T13:38:48;707.53;;;329.70;;
7440;SDS011;29616;51.950;8.572;2023-12-20T13:41:18;707.25;;;333.63;;
7440;SDS011;29616;51.950;8.572;2023-12-20T13:43:46;705.78;;;330.55;;
7440;SDS011;29616;51.950;8.572;2023-12-20T13:46:15;682.80;;;321.50;;
7440;SDS011;29616;51.950;8.572;2023-12-20T13:48:46;697.60;;;327.85;;
7440;SDS011;29616;51.950;8.572;2023-12-20T13:51:16;711.80;;;337.17;;
7440;SDS011;29616;51.950;8.572;2023-12-20T13:53:46;710.33;;;336.00;;
7440;SDS011;29616;51.950;8.572;2023-12-20T13:56:16;707.35;;;333.33;;
7440;SDS011;29616;51.950;8.572;2023-12-20T13:58:49;701.22;;;334.27;;
7440;SDS011;29616;51.950;8.572;2023-12-20T14:01:20;700.63;;;335.35;;
7440;SDS011;29616;51.950;8.572;2023-12-20T14:03:52;697.20;;;335.17;;
7440;SDS011;29616;51.950;8.572;2023-12-20T14:06:23;704.80;;;338.02;;
7440;SDS011;29616;51.950;8.572;2023-12-20T14:08:51;700.55;;;340.80;;
7440;SDS011;29616;51.950;8.572;2023-12-20T14:11:22;689.38;;;333.15;;
7440;SDS011;29616;51.950;8.572;2023-12-20T14:13:51;680.05;;;329.77;;
7440;SDS011;29616;51.950;8.572;2023-12-20T14:16:27;668.53;;;324.58;;
7440;SDS011;29616;51.950;8.572;2023-12-20T14:18:57;653.63;;;313.30;;
7440;SDS011;29616;51.950;8.572;2023-12-20T14:21:25;646.25;;;311.23;;
7440;SDS011;29616;51.950;8.572;2023-12-20T14:23:54;639.55;;;311.38;;
7440;SDS011;29616;51.950;8.572;2023-12-20T14:26:24;642.78;;;310.17;;
7440;SDS011;29616;51.950;8.572;2023-12-20T14:28:54;625.05;;;301.55;;
7440;SDS011;29616;51.950;8.572;2023-12-20T14:31:23;626.58;;;298.77;;
7440;SDS011;29616;51.950;8.572;2023-12-20T14:33:54;610.28;;;295.95;;
7440;SDS011;29616;51.950;8.572;2023-12-20T14:36:27;609.95;;;293.48;;
7440;SDS011;29616;51.950;8.572;2023-12-20T14:38:59;620.60;;;297.17;;
7440;SDS011;29616;51.950;8.572;2023-12-20T14:41:29;617.70;;;296.35;;
7440;SDS011;29616;51.950;8.572;2023-12-20T14:43:59;613.90;;;292.63;;
7440;SDS011;29616;51.950;8.572;2023-12-20T14:46:32;620.53;;;298.25;;
7440;SDS011;29616;51.950;8.572;2023-12-20T14:49:07;620.75;;;296.92;;
7440;SDS011;29616;51.950;8.572;2023-12-20T14:51:37;617.80;;;299.10;;
7440;SDS011;29616;51.950;8.572;2023-12-20T14:54:07;632.95;;;302.63;;
7440;SDS011;29616;51.950;8.572;2023-12-20T14:56:38;633.95;;;304.10;;